ADDS METAR Data INFO
IDs: Format: Raw Decoded Include TAF

Data at: 2123 UTC 25 Feb 2018

KIAH 252053Z 06008KT 6SM -RA BR OVC005 16/15 A2992 RMK AO2 RAE29B52 SLP131 P0000 60009 T01560150 56026 $
KIAH 251953Z 02007KT 5SM -RA BR OVC005 16/15 A2994 RMK AO2 RAB11 SLP138 P0009 T01560150 $
KIAH 251921Z 04010KT 4SM -RA BR BKN006 OVC011 16/15 A2995 RMK AO2 RAB11 P0000 T01610150 $
KIAH 251917Z 03010KT 2SM -RA BR SCT006 OVC011 17/15 A2995 RMK AO2 RAB11 P0000 T01670150 $
KIAH 251853Z 03007KT 10SM FEW006 OVC011 17/15 A2997 RMK AO2 RAE01B21E34 SLP149 P0000 T01670150 $
KIAH 251758Z 11010KT 7SM -RA FEW007 OVC014 16/14 A2999 RMK AO2 LTG DSNT NW P0000 T01560144 $
KIAH 251753Z COR 10008KT 5SM +RA BR FEW007 OVC014 16/14 A3000 RMK AO2 LTG DSNT W AND NW RAB46 SLP157 P0003 60025 T01560144 10156 20128 58002 $
KIAH 251653Z 04007KT 10SM SCT007 OVC020 14/13 A3002 RMK AO2 LTG DSNT N RAE49 SLP166 P0005 T01440133 $
KIAH 251628Z 03011KT 6SM -RA BR SCT007 OVC020 13/12 A3004 RMK AO2 LTG DSNT NW-NE P0005 T01330122 $
KIAH 251553Z 35013KT 3SM +RA BR SCT011 OVC020 13/12 A3003 RMK AO2 RAB00 TSB19E48 SLP170 TS MOV NE P0005 T01330122 $
KIAH 251520Z 08007KT 3SM -TSRA BR FEW012 OVC020CB 13/12 A3000 RMK AO2 RAB00 TSB19 OCNL LTGICCG W-N TS W-N MOV NE P0001 T01280122 $
KIAH 251453Z 05011KT 10SM FEW012 OVC023 13/12 A3000 RMK AO2 LTG DSNT W RAB1356E49 SLP159 P0000 60012 T01330117 53009 $
KIAH 251353Z 07012KT 10SM OVC026 13/12 A2999 RMK AO2 LTG DSNT N AND NW RAE1254B10E53 SLP154 CB DSNT W-N P0008 T01280117 $
KIAH 251253Z 05012KT 10SM -RA OVC025 13/11 A2998 RMK AO2 RAB1158 TSB21E43 SLP153 TS DSIPTD P0004 T01330106 $
KIAH 251243Z 02009KT 7SM RA OVC025 13/11 A3000 RMK AO2 RAB1158 TSB21E43 TS DSIPTD P0004 T01330106 $
KIAH 251222Z 33010KT 9SM -TSRA FEW012 BKN026CB OVC100 13/11 A3001 RMK AO2 RAB1158 TSB21 PRESRR OCNL LTGICCC SW TS SW MOV NE P0002 T01330111 $
KIAH 251153Z 06008KT 9SM SCT028 BKN060 BKN110 13/11 A2998 RMK AO2 RAB1058E08B30E39 SLP150 OCNL LTGICCC DSNT SW CB DSNT SW MOV NE P0000 60017 70017 T01330106 10228 20133 55003 $
KIAH 251100Z 07010KT 9SM -RA SCT028 BKN060 BKN110 13/12 A2996 RMK AO2 RAB1058 OCNL LTGICCC DSNT SW CB DSNT SW MOV NE P0000 T01330117 $
KIAH 251053Z 05007KT 9SM FEW010 BKN028 OVC120 13/12 A2997 RMK AO2 RAE18 TSE18 SLP147 OCNL LTGICCC DSNT NE TS MOV NE CB DSNT NE MOV NE P0000 T01330117 $
KIAH 251019Z 01006KT 8SM FEW010 BKN025 OVC120 13/12 A2996 RMK AO2 RAE18 TSE18 OCNL LTGICCC DSNT NE TS MOV NE CB DSNT NE MOV NE P0000 T01330117 $
KIAH 250953Z 03009KT 6SM TSRA BR FEW010 BKN025CB OVC120 14/13 A2996 RMK AO2 WSHFT 0845 SLP145 OCNL LTGICCCCG ALQDS TS ALQDS MOV NE P0013 T01390128 $
KIAH 250934Z 04011KT 6SM TSRA BR FEW010 BKN025CB OVC120 14/13 A2992 RMK AO2 WSHFT 0845 OCNL LTGICCCCG ALQDS TS ALQDS MOV NE P0013 T01440133 $
KIAH 250901Z 03017KT 6SM TSRA BR SCT008 BKN014CB OVC100 17/15 A2999 RMK AO2 WSHFT 0845 OCNL LTGICCCCG OHD TS OHD MOV NE FROPA P0004 T01670150 $
KIAH 250853Z 02013KT 6SM TSRA BR SCT008 BKN014CB OVC100 18/17 A2998 RMK AO2 RAB0757 TSB10 PRESRR SLP152 OCNL LTGICCCCG OHD TS OHD MOV NE FROPA P0004 60004 T01780167 53009 $
KIAH 250837Z 12007KT 7SM TSRA SCT008 BKN014CB OVC100 22/22 A2994 RMK AO2 RAB0757 TSB10 PRESRR OCNL LTGICCCCG OHD TS OHD MOV NE P0002 T02220217 $
KIAH 250811Z 13007KT 7SM -TSRA FEW014 SCT025CB OVC100 22/22 A2991 RMK AO2 RAB0757 TSB10 PRESFR OCNL LTGICCCCG SW-NW TS SW-NW MOV NE P0000 T02220217 $
KIAH 250753Z 16005KT 6SM BR SCT014 BKN025 OVC100 23/22 A2993 RMK AO2 RAB06E52 SLP135 OCNL LTGICCC DSNT SW-N CB DSNT SW-N MOV NE P0000 T02280217 $
KIAH 250731Z 00000KT 7SM -RA SCT014 BKN025 OVC100 23/22 A2994 RMK AO2 RAB06 OCNL LTGICCC DSNT NW-N CB DSNT NW-N MOV NE P0000 T02280217 $
KIAH 250653Z 17004KT 7SM BKN014 OVC025 23/22 A2994 RMK AO2 SLP140 OCNL LTGICCC DSNT NW-N CB DSNT NW-N MOV NE T02280217 $
KIAH 250637Z 18004KT 7SM BKN014 OVC025 23/22 A2995 RMK AO2 OCNL LTGICCC DSNT NW CB DSNT NW MOV NE T02280217 $
KIAH 250553Z 00000KT 8SM BKN015 BKN030 OVC100 23/22 A2995 RMK AO2 RAE0455 TSE10 SLP143 OCNL LTGICCC DSNT NE CB DSNT NE MOV NE P0000 60000 T02280217 10250 20228 402720228 51009 $
KIAH 250511Z 17004KT 9SM BKN015 OVC100 23/22 A2995 RMK AO2 RAE0455 TSE10 OCNL LTGICCC DSNT NE CB DSNT NE MOV NE P0000 T02280217 $
KIAH 250453Z 18003KT 7SM -TSRA BKN015CB OVC100 23/22 A2995 RMK AO2 RAB33 TSB38 SLP143 OCNL LTGIC NE-E TS NE-E MOV NE P0000 T02280217 $
KIAH 250438Z 17003KT 7SM -TSRA BKN018CB OVC100 23/21 A2995 RMK AO2 RAB33 TSB38 OCNL LTGIC SW-W TS SW-W MOV NE P0000 T02330211 $
KIAH 250408Z 00000KT 7SM BKN017 BKN100 OVC150 23/21 A2995 RMK AO2 T02330211 $
KIAH 250353Z 19004KT 7SM SCT020 BKN100 OVC150 23/21 A2993 RMK AO2 SLP134 T02330211 $
KIAH 250337Z 17008KT 7SM SCT020 SCT045 OVC150 23/21 A2993 RMK AO2 T02330211 $
KIAH 250253Z 22003KT 7SM BKN020 BKN040 OVC160 24/21 A2993 RMK AO2 SLP134 60000 T02390206 53020 $
KIAH 250153Z 18008KT 7SM BKN025 BKN040 OVC170 24/21 A2990 RMK AO2 RAB0055E14 SLP126 P0000 T02390206 $
KIAH 250053Z 19010G16KT 10SM BKN028 OVC050 24/20 A2988 RMK AO2 SLP117 T02440200 $
KIAH 242353Z 19008KT 10SM BKN033 BKN065 OVC170 25/20 A2987 RMK AO2 SLP114 60000 T02500200 10272 20250 55000 $
KIAH 242253Z 18011KT 10SM SCT034 BKN060 BKN100 OVC200 26/19 A2986 RMK AO2 RAB13E30 SLP110 P0000 T02560194 $
KIAH 242153Z 20008G16KT 10SM SCT035 BKN060 OVC100 26/19 A2986 RMK AO2 RAB36E45 SLP112 P0000 T02610189 $
KIAH 242053Z 20008G18KT 10SM SCT039 BKN060 OVC180 26/19 A2987 RMK AO2 SLP114 T02610189 56022 $
KIAH 241953Z 18012G24KT 10SM SCT038 BKN060 OVC180 27/18 A2988 RMK AO2 SLP119 T02670178 $
KIAH 241853Z 17017G24KT 150V210 10SM SCT033 BKN048 BKN070 BKN180 27/19 A2991 RMK AO2 PK WND 20026/1838 SLP126 T02670189 $
KIAH 241822Z 18015G21KT 10SM SCT033 BKN045 BKN130 BKN180 26/19 A2992 RMK AO2 T02610194 $
KIAH 241753Z 18017G26KT 10SM SCT029 BKN042 BKN180 26/19 A2994 RMK AO2 PK WND 17026/1744 SLP136 T02610189 10261 20228 58009 $
KIAH 241653Z 17014G26KT 10SM SCT022 BKN040 BKN180 25/20 A2995 RMK AO2 PK WND 15027/1636 SLP142 T02500200 $
KIAH 241553Z 17008KT 10SM BKN018 BKN035 BKN080 BKN150 23/21 A2997 RMK AO2 SLP148 T02330206 $
KIAH 241453Z 17016G21KT 10SM BKN016 BKN033 BKN070 BKN140 23/21 A2996 RMK AO2 SLP146 T02330206 58001 $
KIAH 241353Z 17008KT 9SM BKN017 BKN034 BKN070 BKN130 23/21 A2997 RMK AO2 SLP149 T02280211 $
KIAH 241324Z 17008KT 9SM BKN018 BKN036 BKN060 BKN130 23/21 A2998 RMK AO2 T02280206 $
KIAH 241253Z 17007KT 9SM FEW030 BKN038 OVC060 23/21 A2997 RMK AO2 SLP148 T02280206 $
KIAH 241229Z 18007KT 8SM SCT028 OVC038 23/21 A2997 RMK AO2 T02280206 $
KIAH 241153Z 17010KT 7SM FEW015 BKN028 OVC038 23/21 A2996 RMK AO2 SLP146 60001 70001 T02280206 10233 20228 55004 $
KIAH 241137Z 17010G16KT 7SM FEW015 BKN026 OVC038 23/21 A2997 RMK AO2 T02280206 $
KIAH 241053Z 17008KT 9SM SCT015 SCT025 OVC038 23/21 A2996 RMK AO2 RAB02E11 SLP145 P0000 T02280211 $
KIAH 240953Z 17008KT 9SM SCT015 SCT024 OVC038 23/21 A2996 RMK AO2 SLP144 T02280211 $